createdAt,value
2019-05-29T00:00:26.273Z,0.00
2019-05-29T00:01:26.297Z,0.00
2019-05-29T00:02:26.256Z,0.00
2019-05-29T00:03:26.249Z,0.00
2019-05-29T00:04:26.245Z,0.00
2019-05-29T00:05:26.228Z,0.00
2019-05-29T00:06:26.229Z,0.00
2019-05-29T00:07:26.198Z,0.00
2019-05-29T00:08:26.191Z,0.00
2019-05-29T00:09:26.186Z,0.00
2019-05-29T00:10:26.183Z,0.00
2019-05-29T00:11:26.176Z,0.00
2019-05-29T00:12:26.148Z,0.00
2019-05-29T00:13:26.131Z,0.00
2019-05-29T00:14:27.577Z,0.00
2019-05-29T00:15:26.138Z,0.00
2019-05-29T00:16:26.107Z,0.00
2019-05-29T00:17:26.301Z,0.00
2019-05-29T00:18:26.077Z,0.00
2019-05-29T00:19:26.075Z,0.00
2019-05-29T00:20:26.057Z,0.00
2019-05-29T00:21:26.054Z,0.00
2019-05-29T00:22:26.082Z,0.00
2019-05-29T00:23:26.060Z,0.00
2019-05-29T00:24:26.013Z,0.00
2019-05-29T00:25:26.006Z,0.00
2019-05-29T00:26:26.021Z,0.00
2019-05-29T00:27:26.007Z,0.00
2019-05-29T00:28:26.009Z,0.00
2019-05-29T00:29:25.979Z,0.00
2019-05-29T00:30:25.951Z,0.00
2019-05-29T00:31:25.941Z,0.00
2019-05-29T00:32:25.930Z,0.00
2019-05-29T00:33:25.917Z,0.00
2019-05-29T00:34:25.951Z,0.00
2019-05-29T00:35:25.890Z,0.00
2019-05-29T00:36:25.884Z,0.00
2019-05-29T00:37:25.881Z,0.00
2019-05-29T00:38:25.868Z,0.00
2019-05-29T00:39:25.851Z,0.00
2019-05-29T00:40:25.916Z,0.00
2019-05-29T00:41:25.830Z,0.00
2019-05-29T00:42:25.814Z,0.00
2019-05-29T00:43:25.816Z,0.00
2019-05-29T00:44:33.862Z,0.00
2019-05-29T00:45:26.814Z,0.00
2019-05-29T00:46:25.769Z,0.00
2019-05-29T00:47:25.757Z,0.00
2019-05-29T00:48:25.750Z,0.00
2019-05-29T00:49:25.735Z,0.00
2019-05-29T00:50:25.742Z,0.00
2019-05-29T00:51:25.781Z,0.00
2019-05-29T00:52:25.726Z,0.00
2019-05-29T00:53:25.695Z,0.00
2019-05-29T00:54:25.688Z,0.00
2019-05-29T00:55:25.677Z,0.00
2019-05-29T00:56:25.664Z,0.00
2019-05-29T00:57:25.867Z,0.00
2019-05-29T00:58:25.641Z,0.00
2019-05-29T00:59:25.632Z,0.00
2019-05-29T01:00:25.627Z,0.00
2019-05-29T01:01:25.614Z,0.00
2019-05-29T01:02:25.600Z,0.00
2019-05-29T01:03:25.611Z,0.00
2019-05-29T01:04:25.781Z,0.00
2019-05-29T01:05:25.574Z,0.00
2019-05-29T01:06:25.552Z,0.00
2019-05-29T01:07:25.547Z,0.00
2019-05-29T01:08:25.561Z,0.00
2019-05-29T01:09:25.526Z,0.00
2019-05-29T01:10:25.505Z,0.00
2019-05-29T01:11:25.500Z,0.00
2019-05-29T01:12:25.511Z,0.00
2019-05-29T01:13:25.484Z,0.00
2019-05-29T01:14:25.470Z,0.00
2019-05-29T01:15:25.453Z,0.00
2019-05-29T01:16:25.452Z,0.00
2019-05-29T01:17:25.426Z,0.00
2019-05-29T01:18:25.459Z,0.00
2019-05-29T01:19:25.433Z,0.00
2019-05-29T01:20:25.419Z,0.00
2019-05-29T01:21:25.392Z,0.00
2019-05-29T01:22:25.382Z,0.00
2019-05-29T01:23:25.361Z,0.00
2019-05-29T01:24:25.456Z,0.00
2019-05-29T01:25:25.356Z,0.00
2019-05-29T01:26:25.334Z,0.00
2019-05-29T01:27:25.326Z,0.00
2019-05-29T01:28:25.314Z,0.00
2019-05-29T01:29:25.303Z,0.00
2019-05-29T01:30:25.312Z,0.00
2019-05-29T01:31:25.274Z,0.00
2019-05-29T01:32:25.263Z,0.00
2019-05-29T01:33:25.259Z,0.00
2019-05-29T01:34:25.254Z,0.00
2019-05-29T01:35:25.248Z,0.00
2019-05-29T01:36:25.238Z,0.00
2019-05-29T01:37:26.375Z,0.00
2019-05-29T01:38:25.201Z,0.00
2019-05-29T01:39:25.180Z,0.00
2019-05-29T01:40:29.117Z,0.00
2019-05-29T01:41:25.169Z,0.00
2019-05-29T01:42:25.167Z,0.00
2019-05-29T01:43:25.147Z,0.00
2019-05-29T01:44:25.141Z,0.00
2019-05-29T01:45:25.142Z,0.00
2019-05-29T01:46:25.115Z,0.00
2019-05-29T01:47:25.102Z,0.00
2019-05-29T01:48:25.082Z,0.00
2019-05-29T01:49:25.079Z,0.00
2019-05-29T01:50:25.078Z,0.00
2019-05-29T01:51:25.055Z,0.00
2019-05-29T01:52:25.042Z,0.00
2019-05-29T01:53:25.154Z,0.00
2019-05-29T01:54:25.020Z,0.00
2019-05-29T01:55:25.040Z,0.00
2019-05-29T01:56:25.013Z,0.00
2019-05-29T01:57:24.987Z,0.00
2019-05-29T01:58:24.990Z,0.00
2019-05-29T01:59:24.972Z,0.00
2019-05-29T02:00:24.964Z,0.00
2019-05-29T02:01:24.958Z,0.00
2019-05-29T02:02:24.969Z,0.00
2019-05-29T02:03:24.930Z,0.00
2019-05-29T02:04:24.937Z,0.00
2019-05-29T02:05:24.908Z,0.00
2019-05-29T02:06:24.897Z,0.00
2019-05-29T02:07:24.897Z,0.00
2019-05-29T02:08:24.862Z,0.00
2019-05-29T02:09:24.898Z,0.00
2019-05-29T02:10:24.849Z,0.00
2019-05-29T02:11:24.829Z,4.00
2019-05-29T02:12:24.830Z,4.00
2019-05-29T02:13:24.805Z,4.00
2019-05-29T02:14:24.961Z,0.00
2019-05-29T02:15:32.162Z,0.00
2019-05-29T02:16:26.874Z,4.00
2019-05-29T02:17:24.771Z,4.00
2019-05-29T02:18:25.137Z,4.00
2019-05-29T02:19:24.754Z,4.00
2019-05-29T02:20:25.203Z,4.00
2019-05-29T02:21:24.757Z,8.00
2019-05-29T02:22:25.044Z,4.00
2019-05-29T02:23:24.707Z,8.00
2019-05-29T02:24:25.436Z,8.00
2019-05-29T02:25:24.680Z,8.00
2019-05-29T02:26:24.669Z,8.00
2019-05-29T02:27:25.566Z,12.00
2019-05-29T02:28:24.674Z,12.00
2019-05-29T02:29:24.918Z,16.00
2019-05-29T02:30:27.809Z,16.00
2019-05-29T02:31:27.057Z,16.00
2019-05-29T02:32:25.609Z,20.00
2019-05-29T02:33:26.163Z,24.00
2019-05-29T02:34:25.485Z,28.00
2019-05-29T02:35:26.714Z,28.00
2019-05-29T02:36:26.633Z,32.00
2019-05-29T02:37:24.546Z,36.00
2019-05-29T02:38:25.447Z,44.00
2019-05-29T02:39:25.632Z,48.00
2019-05-29T02:40:27.577Z,52.00
2019-05-29T02:41:26.217Z,56.00
2019-05-29T02:42:25.203Z,60.00
2019-05-29T02:43:25.987Z,68.00
2019-05-29T02:44:25.425Z,68.00
2019-05-29T02:45:49.265Z,76.00
2019-05-29T02:46:26.451Z,84.00
2019-05-29T02:47:26.064Z,96.00
2019-05-29T02:48:25.045Z,100.00
2019-05-29T02:49:25.725Z,112.00
2019-05-29T02:50:26.163Z,120.00
2019-05-29T02:51:28.405Z,128.00
2019-05-29T02:52:26.084Z,140.00
2019-05-29T02:53:24.559Z,152.00
2019-05-29T02:54:24.864Z,168.00
2019-05-29T02:55:24.548Z,184.00
2019-05-29T02:56:24.884Z,200.00
2019-05-29T02:57:24.648Z,220.00
2019-05-29T02:58:25.450Z,236.00
2019-05-29T02:59:25.582Z,256.00
2019-05-29T03:00:25.641Z,280.00
2019-05-29T03:01:25.491Z,300.00
2019-05-29T03:02:27.945Z,316.00
2019-05-29T03:03:26.366Z,332.00
2019-05-29T03:04:26.089Z,348.00
2019-05-29T03:05:25.854Z,364.00
2019-05-29T03:06:24.218Z,380.00
2019-05-29T03:07:24.361Z,400.00
2019-05-29T03:08:24.801Z,424.00
2019-05-29T03:09:24.728Z,444.00
2019-05-29T03:10:24.777Z,468.00
2019-05-29T03:11:25.169Z,488.00
2019-05-29T03:12:25.005Z,512.00
2019-05-29T03:13:25.470Z,536.00
2019-05-29T03:14:25.252Z,564.00
2019-05-29T03:15:25.613Z,584.00
2019-05-29T03:16:26.135Z,608.00
2019-05-29T03:17:25.634Z,628.00
2019-05-29T03:18:25.685Z,644.00
2019-05-29T03:19:25.804Z,660.00
2019-05-29T03:20:24.062Z,664.00
2019-05-29T03:21:24.193Z,668.00
2019-05-29T03:22:24.148Z,672.00
2019-05-29T03:23:24.275Z,684.00
2019-05-29T03:24:24.520Z,692.00
2019-05-29T03:25:24.382Z,708.00
2019-05-29T03:26:26.546Z,724.00
2019-05-29T03:27:25.605Z,740.00
2019-05-29T03:28:25.511Z,752.00
2019-05-29T03:29:25.751Z,776.00
2019-05-29T03:30:26.969Z,816.00
2019-05-29T03:31:29.958Z,852.00
2019-05-29T03:32:28.265Z,868.00
2019-05-29T03:33:27.297Z,880.00
2019-05-29T03:34:27.678Z,876.00
2019-05-29T03:35:28.410Z,876.00
2019-05-29T03:36:27.663Z,884.00
2019-05-29T03:37:26.301Z,908.00
2019-05-29T03:38:23.876Z,936.00
2019-05-29T03:39:23.844Z,972.00
2019-05-29T03:40:23.839Z,1004.00
2019-05-29T03:41:23.837Z,1044.00
2019-05-29T03:42:23.834Z,1084.00
2019-05-29T03:43:23.839Z,1136.00
2019-05-29T03:44:23.796Z,1188.00
2019-05-29T03:45:23.777Z,1248.00
2019-05-29T03:46:31.920Z,1312.00
2019-05-29T03:47:26.778Z,1384.00
2019-05-29T03:48:23.771Z,1440.00
2019-05-29T03:49:23.746Z,1456.00
2019-05-29T03:50:23.730Z,1484.00
2019-05-29T03:51:23.723Z,1504.00
2019-05-29T03:52:23.729Z,1528.00
2019-05-29T03:53:23.896Z,1536.00
2019-05-29T03:54:23.819Z,1544.00
2019-05-29T03:55:23.674Z,1568.00
2019-05-29T03:56:23.660Z,1616.00
2019-05-29T03:57:23.658Z,1684.00
2019-05-29T03:58:23.638Z,1784.00
2019-05-29T03:59:24.433Z,1916.00
2019-05-29T04:00:23.616Z,2032.00
2019-05-29T04:01:23.620Z,2120.00
2019-05-29T04:02:23.605Z,2184.00
2019-05-29T04:03:23.621Z,2224.00
2019-05-29T04:04:23.590Z,2352.00
2019-05-29T04:05:23.567Z,2488.00
2019-05-29T04:06:23.578Z,2648.00
2019-05-29T04:07:23.547Z,2812.00
2019-05-29T04:08:23.561Z,2896.00
2019-05-29T04:09:23.566Z,2888.00
2019-05-29T04:10:23.534Z,2836.00
2019-05-29T04:11:23.490Z,2828.00
2019-05-29T04:12:23.494Z,2896.00
2019-05-29T04:13:23.495Z,3004.00
2019-05-29T04:14:23.459Z,3160.00
2019-05-29T04:15:23.447Z,3264.00
2019-05-29T04:16:23.491Z,3332.00
2019-05-29T04:17:23.426Z,3368.00
2019-05-29T04:18:23.431Z,3356.00
2019-05-29T04:19:23.411Z,3288.00
2019-05-29T04:20:23.390Z,3196.00
2019-05-29T04:21:23.388Z,3084.00
2019-05-29T04:22:23.395Z,3016.00
2019-05-29T04:23:23.368Z,3020.00
2019-05-29T04:24:23.352Z,3072.00
2019-05-29T04:25:23.354Z,3160.00
2019-05-29T04:26:23.325Z,3288.00
2019-05-29T04:27:23.438Z,3444.00
2019-05-29T04:28:23.305Z,3588.00
2019-05-29T04:29:23.292Z,3692.00
2019-05-29T04:30:23.290Z,3756.00
2019-05-29T04:31:23.280Z,3776.00
2019-05-29T04:32:23.268Z,3772.00
2019-05-29T04:33:23.269Z,3752.00
2019-05-29T04:34:23.232Z,3768.00
2019-05-29T04:35:23.242Z,3876.00
2019-05-29T04:36:23.215Z,4072.00
2019-05-29T04:37:23.217Z,4312.00
2019-05-29T04:38:23.188Z,4552.00
2019-05-29T04:39:23.199Z,4756.00
2019-05-29T04:40:23.178Z,4960.00
2019-05-29T04:41:23.164Z,5136.00
2019-05-29T04:42:23.148Z,5280.00
2019-05-29T04:43:23.139Z,5396.00
2019-05-29T04:44:23.147Z,5468.00
2019-05-29T04:45:23.112Z,5516.00
2019-05-29T04:46:23.102Z,5480.00
2019-05-29T04:47:23.106Z,5348.00
2019-05-29T04:48:23.101Z,5292.00
2019-05-29T04:49:23.086Z,5332.00
2019-05-29T04:50:23.065Z,5420.00
2019-05-29T04:51:23.065Z,5516.00
2019-05-29T04:52:23.057Z,5608.00
2019-05-29T04:53:23.035Z,5708.00
2019-05-29T04:54:23.311Z,5852.00
2019-05-29T04:55:23.007Z,6028.00
2019-05-29T04:56:23.015Z,6144.00
2019-05-29T04:57:22.986Z,6244.00
2019-05-29T04:58:22.977Z,6264.00
2019-05-29T04:59:23.002Z,6216.00
2019-05-29T05:00:22.979Z,6172.00
2019-05-29T05:01:22.974Z,6220.00
2019-05-29T05:02:22.937Z,6376.00
2019-05-29T05:03:22.935Z,6556.00
2019-05-29T05:04:22.910Z,6784.00
2019-05-29T05:05:22.908Z,7056.00
2019-05-29T05:06:22.885Z,7252.00
2019-05-29T05:07:22.929Z,7484.00
2019-05-29T05:08:22.888Z,7728.00
2019-05-29T05:09:22.846Z,7840.00
2019-05-29T05:10:22.848Z,8036.00
2019-05-29T05:11:22.836Z,8256.00
2019-05-29T05:12:22.901Z,8408.00
2019-05-29T05:13:22.811Z,8444.00
2019-05-29T05:14:22.802Z,8588.00
2019-05-29T05:15:22.785Z,8748.00
2019-05-29T05:16:22.779Z,8824.00
2019-05-29T05:17:26.189Z,8868.00
2019-05-29T05:18:22.757Z,9044.00
2019-05-29T05:19:22.745Z,9192.00
2019-05-29T05:20:22.730Z,9280.00
2019-05-29T05:21:22.727Z,9524.00
2019-05-29T05:22:22.755Z,9900.00
2019-05-29T05:23:22.695Z,10152.00
2019-05-29T05:24:22.683Z,10352.00
2019-05-29T05:25:22.689Z,10584.00
2019-05-29T05:26:22.654Z,10764.00
2019-05-29T05:27:22.651Z,10732.00
2019-05-29T05:28:22.866Z,10560.00
2019-05-29T05:29:22.641Z,10544.00
2019-05-29T05:30:22.613Z,10672.00
2019-05-29T05:31:22.619Z,10684.00
2019-05-29T05:32:22.592Z,10572.00
2019-05-29T05:33:22.583Z,10432.00
2019-05-29T05:34:22.581Z,10384.00
2019-05-29T05:35:22.580Z,10368.00
2019-05-29T05:36:22.627Z,10412.00
2019-05-29T05:37:22.534Z,10296.00
2019-05-29T05:38:22.528Z,10176.00
2019-05-29T05:39:22.989Z,10236.00
2019-05-29T05:40:22.503Z,10492.00
2019-05-29T05:41:22.506Z,10884.00
2019-05-29T05:42:22.487Z,11124.00
2019-05-29T05:43:24.458Z,11432.00
2019-05-29T05:44:22.492Z,11860.00
2019-05-29T05:45:22.460Z,12212.00
2019-05-29T05:46:24.786Z,12512.00
2019-05-29T05:47:22.437Z,12844.00
2019-05-29T05:48:22.426Z,13276.00
2019-05-29T05:49:22.412Z,13860.00
2019-05-29T05:50:22.414Z,14604.00
2019-05-29T05:51:22.392Z,15372.00
2019-05-29T05:52:22.386Z,15728.00
2019-05-29T05:53:22.368Z,15668.00
2019-05-29T05:54:22.363Z,15656.00
2019-05-29T05:55:22.440Z,15604.00
2019-05-29T05:56:22.332Z,15492.00
2019-05-29T05:57:22.348Z,15504.00
2019-05-29T05:58:22.307Z,15600.00
2019-05-29T05:59:22.284Z,15776.00
2019-05-29T06:00:22.281Z,15964.00
2019-05-29T06:01:22.332Z,15748.00
2019-05-29T06:02:22.297Z,15772.00
2019-05-29T06:03:22.243Z,15768.00
2019-05-29T06:04:22.252Z,15768.00
2019-05-29T06:05:22.221Z,15864.00
2019-05-29T06:06:22.223Z,15836.00
2019-05-29T06:07:22.211Z,15908.00
2019-05-29T06:08:22.204Z,15924.00
2019-05-29T06:09:22.191Z,15928.00
2019-05-29T06:10:22.183Z,16132.00
2019-05-29T06:11:22.213Z,16704.00
2019-05-29T06:12:22.156Z,17280.00
2019-05-29T06:13:22.142Z,17504.00
2019-05-29T06:14:22.139Z,17216.00
2019-05-29T06:15:22.120Z,16704.00
2019-05-29T06:16:22.189Z,16036.00
2019-05-29T06:17:22.140Z,15552.00
2019-05-29T06:18:22.159Z,16108.00
2019-05-29T06:19:22.069Z,14712.00
2019-05-29T06:20:22.243Z,14184.00
2019-05-29T06:21:22.067Z,13712.00
2019-05-29T06:22:22.561Z,13492.00
2019-05-29T06:23:22.021Z,13248.00
2019-05-29T06:24:22.019Z,13684.00
2019-05-29T06:25:22.014Z,13176.00
2019-05-29T06:26:22.027Z,13316.00
2019-05-29T06:27:21.986Z,13680.00
2019-05-29T06:28:22.055Z,14644.00
2019-05-29T06:29:21.962Z,14996.00
2019-05-29T06:30:21.954Z,15872.00
2019-05-29T06:31:21.932Z,14976.00
2019-05-29T06:32:21.981Z,13928.00
2019-05-29T06:33:21.949Z,16832.00
2019-05-29T06:34:21.962Z,15956.00
2019-05-29T06:35:21.896Z,16120.00
2019-05-29T06:36:21.891Z,16416.00
2019-05-29T06:37:21.870Z,15732.00
2019-05-29T06:38:21.858Z,15156.00
2019-05-29T06:39:21.858Z,15356.00
2019-05-29T06:40:21.835Z,14080.00
2019-05-29T06:41:21.828Z,13024.00
2019-05-29T06:42:21.815Z,12980.00
2019-05-29T06:43:21.805Z,13304.00
2019-05-29T06:44:21.798Z,14744.00
2019-05-29T06:45:21.827Z,15244.00
2019-05-29T06:46:21.778Z,15540.00
2019-05-29T06:47:21.806Z,15860.00
2019-05-29T06:48:40.487Z,15484.00
2019-05-29T06:49:22.735Z,14500.00
2019-05-29T06:50:21.740Z,15804.00
2019-05-29T06:51:21.705Z,16864.00
2019-05-29T06:52:21.700Z,17056.00
2019-05-29T06:53:21.696Z,17824.00
2019-05-29T06:54:21.685Z,18336.00
2019-05-29T06:55:21.668Z,18976.00
2019-05-29T06:56:21.880Z,20832.00
2019-05-29T06:57:25.787Z,22688.00
2019-05-29T06:58:21.636Z,22464.00
2019-05-29T06:59:21.637Z,22400.00
2019-05-29T07:00:35.015Z,21888.00
2019-05-29T07:01:22.609Z,21440.00
2019-05-29T07:02:21.588Z,20480.00
2019-05-29T07:03:37.648Z,20640.00
2019-05-29T07:04:21.573Z,21728.00
2019-05-29T07:05:21.563Z,22304.00
2019-05-29T07:06:21.554Z,22400.00
2019-05-29T07:07:21.552Z,22912.00
2019-05-29T07:08:37.605Z,22976.00
2019-05-29T07:09:22.522Z,23104.00
2019-05-29T07:10:21.514Z,22528.00
2019-05-29T07:11:21.536Z,25568.00
2019-05-29T07:12:21.477Z,24224.00
2019-05-29T07:13:21.483Z,21664.00
2019-05-29T07:14:21.452Z,25920.00
2019-05-29T07:15:21.451Z,24544.00
2019-05-29T07:16:21.441Z,25888.00
2019-05-29T07:17:21.467Z,26592.00
2019-05-29T07:18:21.417Z,27200.00
2019-05-29T07:19:29.630Z,37984.00
2019-05-29T07:20:22.402Z,55936.00
2019-05-29T07:21:21.392Z,68192.00
2019-05-29T07:22:21.411Z,30912.00
2019-05-29T07:23:21.365Z,56928.00
2019-05-29T07:24:21.344Z,29824.00
2019-05-29T07:25:21.332Z,18592.00
2019-05-29T07:26:21.324Z,18560.00
2019-05-29T07:27:21.337Z,19008.00
2019-05-29T07:28:21.315Z,72800.00
2019-05-29T07:29:21.490Z,77280.00
2019-05-29T07:30:21.279Z,79296.00
2019-05-29T07:31:21.303Z,78272.00
2019-05-29T07:32:21.281Z,77536.00
2019-05-29T07:33:21.255Z,54336.00
2019-05-29T07:34:21.278Z,79456.00
2019-05-29T07:35:21.229Z,56832.00
2019-05-29T07:36:21.253Z,27744.00
2019-05-29T07:37:21.214Z,62912.00
2019-05-29T07:38:21.206Z,83712.00
2019-05-29T07:39:21.177Z,76736.00
2019-05-29T07:40:21.252Z,95840.00
2019-05-29T07:41:21.167Z,70080.00
2019-05-29T07:42:21.150Z,31200.00
2019-05-29T07:43:21.146Z,21920.00
2019-05-29T07:44:21.130Z,63168.00
2019-05-29T07:45:21.116Z,90688.00
2019-05-29T07:46:21.134Z,28832.00
2019-05-29T07:47:21.126Z,47840.00
2019-05-29T07:48:21.078Z,35328.00
2019-05-29T07:50:22.064Z,92992.00
2019-05-29T07:50:34.287Z,32544.00
2019-05-29T07:51:21.091Z,93888.00
2019-05-29T07:52:21.051Z,99168.00
2019-05-29T07:53:21.059Z,103520.00
2019-05-29T07:54:21.016Z,104064.00
2019-05-29T07:55:23.628Z,101312.00
2019-05-29T07:56:23.053Z,100224.00
2019-05-29T07:57:21.014Z,96576.00
2019-05-29T07:58:20.973Z,99328.00
2019-05-29T07:59:20.960Z,104128.00
2019-05-29T08:00:20.964Z,106176.00
2019-05-29T08:01:20.994Z,110560.00
2019-05-29T08:02:20.939Z,113920.00
2019-05-29T08:03:20.919Z,41120.00
2019-05-29T08:04:20.906Z,23136.00
2019-05-29T08:05:20.890Z,21280.00
2019-05-29T08:06:20.929Z,18848.00
2019-05-29T08:07:20.875Z,24992.00
2019-05-29T08:08:20.877Z,18592.00
2019-05-29T08:09:20.882Z,20032.00
2019-05-29T08:10:20.855Z,27008.00
2019-05-29T08:11:20.829Z,86208.00
2019-05-29T08:12:20.847Z,90304.00
2019-05-29T08:13:20.821Z,93984.00
2019-05-29T08:14:20.797Z,91488.00
2019-05-29T08:15:20.813Z,95712.00
2019-05-29T08:16:20.774Z,93696.00
2019-05-29T08:17:20.914Z,89248.00
2019-05-29T08:18:20.750Z,93184.00
2019-05-29T08:19:20.751Z,90720.00
2019-05-29T08:20:20.726Z,101888.00
2019-05-29T08:21:20.733Z,105856.00
2019-05-29T08:22:33.714Z,104608.00
2019-05-29T08:23:21.711Z,102208.00
2019-05-29T08:24:24.568Z,102720.00
2019-05-29T08:25:20.689Z,99936.00
2019-05-29T08:26:20.695Z,99904.00
2019-05-29T08:27:20.662Z,98784.00
2019-05-29T08:28:20.674Z,100992.00
2019-05-29T08:29:20.675Z,100288.00
2019-05-29T08:30:20.655Z,103616.00
2019-05-29T08:31:20.650Z,100864.00
2019-05-29T08:32:20.662Z,100320.00
2019-05-29T08:33:20.671Z,100576.00
2019-05-29T08:34:20.646Z,103584.00
2019-05-29T08:35:20.571Z,104288.00
2019-05-29T08:36:20.579Z,92480.00
2019-05-29T08:37:20.570Z,32928.00
2019-05-29T08:38:20.547Z,104032.00
2019-05-29T08:39:35.370Z,96000.00
2019-05-29T08:40:21.528Z,28960.00
2019-05-29T08:41:20.510Z,33280.00
2019-05-29T08:42:23.667Z,35488.00
2019-05-29T08:43:20.496Z,22976.00
2019-05-29T08:44:20.511Z,27136.00
2019-05-29T08:45:20.475Z,51936.00
2019-05-29T08:46:20.464Z,115904.00
2019-05-29T08:47:20.460Z,112576.00
2019-05-29T08:48:20.439Z,111488.00
2019-05-29T08:49:20.420Z,111840.00
2019-05-29T08:50:20.413Z,39008.00
2019-05-29T08:51:20.421Z,95712.00
2019-05-29T08:52:20.390Z,117920.00
2019-05-29T08:53:20.445Z,53440.00
2019-05-29T08:54:24.017Z,72736.00
2019-05-29T08:55:20.406Z,101504.00
2019-05-29T08:56:20.613Z,34944.00
2019-05-29T08:57:20.387Z,30304.00
2019-05-29T08:58:20.326Z,28864.00
2019-05-29T08:59:20.324Z,27840.00
2019-05-29T09:00:20.323Z,52800.00
2019-05-29T09:01:20.322Z,28256.00
2019-05-29T09:02:20.539Z,31424.00
2019-05-29T09:03:20.357Z,92736.00
2019-05-29T09:04:20.270Z,108512.00
2019-05-29T09:05:20.255Z,97056.00
2019-05-29T09:06:20.521Z,101056.00
2019-05-29T09:07:20.397Z,105376.00
2019-05-29T09:08:20.521Z,110048.00
2019-05-29T09:09:20.368Z,112800.00
2019-05-29T09:10:20.260Z,108000.00
2019-05-29T09:11:20.346Z,112192.00
2019-05-29T09:12:20.271Z,92672.00
2019-05-29T09:13:20.171Z,56192.00
2019-05-29T09:14:20.201Z,111552.00
2019-05-29T09:15:21.668Z,108128.00
2019-05-29T09:16:20.132Z,28000.00
2019-05-29T09:17:20.161Z,25472.00
2019-05-29T09:18:21.518Z,27296.00
2019-05-29T09:19:21.104Z,34080.00
2019-05-29T09:20:31.970Z,65184.00
2019-05-29T09:21:21.085Z,54720.00
2019-05-29T09:22:20.970Z,41888.00
2019-05-29T09:23:20.911Z,33248.00
2019-05-29T09:24:20.923Z,33920.00
2019-05-29T09:25:21.176Z,132576.00
2019-05-29T09:26:24.194Z,123904.00
2019-05-29T09:27:21.331Z,123168.00
2019-05-29T09:28:20.856Z,121088.00
2019-05-29T09:29:22.159Z,119744.00
2019-05-29T09:30:20.256Z,116544.00
2019-05-29T09:31:20.386Z,114432.00
2019-05-29T09:32:40.873Z,110336.00
2019-05-29T09:33:21.855Z,107200.00
2019-05-29T09:34:20.569Z,109248.00
2019-05-29T09:35:21.636Z,21504.00
2019-05-29T09:36:20.735Z,55136.00
2019-05-29T09:37:20.486Z,125600.00
2019-05-29T09:38:20.947Z,126944.00
2019-05-29T09:39:21.023Z,129856.00
2019-05-29T09:40:21.011Z,41568.00
2019-05-29T09:41:21.474Z,98624.00
2019-05-29T09:42:20.705Z,119008.00
2019-05-29T09:43:20.079Z,31584.00
2019-05-29T09:44:34.003Z,65120.00
2019-05-29T09:45:21.556Z,128160.00
2019-05-29T09:46:20.243Z,34272.00
2019-05-29T09:47:20.429Z,99392.00
2019-05-29T09:48:23.370Z,116864.00
2019-05-29T09:49:21.829Z,123776.00
2019-05-29T09:50:22.605Z,98624.00
2019-05-29T09:51:21.484Z,41280.00
2019-05-29T09:52:19.761Z,60256.00
2019-05-29T09:53:19.771Z,141536.00
2019-05-29T09:54:19.940Z,145888.00
2019-05-29T09:55:19.753Z,143008.00
2019-05-29T09:56:19.812Z,80192.00
2019-05-29T09:57:19.723Z,38080.00
2019-05-29T09:58:19.709Z,83904.00
2019-05-29T09:59:19.707Z,154240.00
2019-05-29T10:00:19.697Z,35296.00
2019-05-29T10:01:23.841Z,32640.00
2019-05-29T10:02:20.721Z,45056.00
2019-05-29T10:03:19.659Z,105184.00
2019-05-29T10:04:19.644Z,30208.00
2019-05-29T10:05:19.635Z,66752.00
2019-05-29T10:06:19.624Z,97088.00
2019-05-29T10:07:19.654Z,167712.00
2019-05-29T10:08:19.628Z,131776.00
2019-05-29T10:09:19.601Z,43872.00
2019-05-29T10:10:19.599Z,78336.00
2019-05-29T10:11:19.581Z,31648.00
2019-05-29T10:12:19.614Z,28384.00
2019-05-29T10:13:19.559Z,26592.00
2019-05-29T10:14:19.552Z,26528.00
2019-05-29T10:15:19.535Z,66432.00
2019-05-29T10:16:19.567Z,58240.00
2019-05-29T10:17:19.511Z,155552.00
2019-05-29T10:18:32.115Z,156128.00
2019-05-29T10:19:20.514Z,155424.00
2019-05-29T10:20:19.485Z,153536.00
2019-05-29T10:21:19.471Z,69248.00
2019-05-29T10:22:19.460Z,144992.00
2019-05-29T10:23:20.183Z,158784.00
2019-05-29T10:24:19.450Z,58048.00
2019-05-29T10:25:19.448Z,31264.00
2019-05-29T10:26:19.478Z,27136.00
2019-05-29T10:27:19.626Z,26432.00
2019-05-29T10:28:19.404Z,157664.00
2019-05-29T10:29:19.436Z,159552.00
2019-05-29T10:30:19.384Z,157856.00
2019-05-29T10:31:19.383Z,155776.00
2019-05-29T10:32:19.357Z,154176.00
2019-05-29T10:33:19.347Z,153184.00
2019-05-29T10:34:19.336Z,147904.00
2019-05-29T10:35:19.367Z,147808.00
2019-05-29T10:36:19.345Z,150560.00
2019-05-29T10:37:19.388Z,149056.00
2019-05-29T10:38:19.302Z,51744.00
2019-05-29T10:39:19.323Z,155232.00
2019-05-29T10:40:19.323Z,24736.00
2019-05-29T10:41:19.289Z,23488.00
2019-05-29T10:42:20.759Z,22304.00
2019-05-29T10:43:33.058Z,24800.00
2019-05-29T10:44:20.245Z,149376.00
2019-05-29T10:45:19.230Z,140416.00
2019-05-29T10:46:19.292Z,138464.00
2019-05-29T10:47:19.214Z,138240.00
2019-05-29T10:48:19.209Z,147360.00
2019-05-29T10:49:19.218Z,145504.00
2019-05-29T10:50:20.104Z,145056.00
2019-05-29T10:51:19.176Z,77408.00
2019-05-29T10:52:19.176Z,24320.00
2019-05-29T10:53:19.197Z,23040.00
2019-05-29T10:54:19.155Z,26112.00
2019-05-29T10:55:19.148Z,25472.00
2019-05-29T10:56:21.371Z,29344.00
2019-05-29T10:57:19.198Z,27456.00
2019-05-29T10:58:19.128Z,150080.00
2019-05-29T10:59:19.112Z,133088.00
2019-05-29T11:00:19.103Z,149216.00
2019-05-29T11:01:19.083Z,147872.00
2019-05-29T11:02:19.128Z,138560.00
2019-05-29T11:03:19.071Z,148192.00
2019-05-29T11:04:33.631Z,31680.00
2019-05-29T11:05:19.045Z,151424.00
2019-05-29T11:06:19.041Z,149888.00
2019-05-29T11:07:19.057Z,30336.00
2019-05-29T11:08:19.026Z,35424.00
2019-05-29T11:09:18.996Z,76928.00
2019-05-29T11:10:18.983Z,39712.00
2019-05-29T11:11:18.984Z,163040.00
2019-05-29T11:12:18.966Z,166624.00
2019-05-29T11:13:18.971Z,28448.00
2019-05-29T11:14:18.960Z,24352.00
2019-05-29T11:15:21.789Z,23712.00
2019-05-29T11:16:18.934Z,100256.00
2019-05-29T11:17:18.922Z,26176.00
2019-05-29T11:18:18.931Z,144352.00
2019-05-29T11:19:18.892Z,138304.00
2019-05-29T11:20:18.902Z,139488.00
2019-05-29T11:21:18.872Z,135072.00
2019-05-29T11:22:26.340Z,131744.00
2019-05-29T11:23:19.854Z,134176.00
2019-05-29T11:24:18.849Z,135584.00
2019-05-29T11:25:23.750Z,133344.00
2019-05-29T11:26:19.831Z,134592.00
2019-05-29T11:27:18.841Z,128224.00
2019-05-29T11:28:18.831Z,127104.00
2019-05-29T11:29:18.805Z,124192.00
2019-05-29T11:30:18.790Z,127264.00
2019-05-29T11:31:18.814Z,131040.00
2019-05-29T11:32:18.783Z,132704.00
2019-05-29T11:33:18.783Z,136224.00
2019-05-29T11:34:18.749Z,140288.00
2019-05-29T11:35:18.750Z,143968.00
2019-05-29T11:36:18.775Z,54976.00
2019-05-29T11:37:18.753Z,65344.00
2019-05-29T11:38:18.728Z,118144.00
2019-05-29T11:39:18.712Z,138304.00
2019-05-29T11:40:18.725Z,116992.00
2019-05-29T11:41:26.382Z,129504.00
2019-05-29T11:42:27.239Z,126624.00
2019-05-29T11:43:19.681Z,130688.00
2019-05-29T11:44:18.666Z,132192.00
2019-05-29T11:45:18.663Z,137344.00
2019-05-29T11:46:18.658Z,140288.00
2019-05-29T11:47:18.685Z,70976.00
2019-05-29T11:48:18.678Z,27584.00
2019-05-29T11:49:18.630Z,25984.00
2019-05-29T11:50:20.093Z,25408.00
2019-05-29T11:51:18.607Z,25152.00
2019-05-29T11:52:24.494Z,29280.00
2019-05-29T11:53:19.653Z,61568.00
2019-05-29T11:54:18.572Z,125440.00
2019-05-29T11:55:18.585Z,129536.00
2019-05-29T11:56:18.572Z,127744.00
2019-05-29T11:57:18.542Z,130784.00
2019-05-29T11:58:30.644Z,126208.00
2019-05-29T11:59:19.518Z,127552.00
2019-05-29T12:00:20.635Z,125152.00
2019-05-29T12:01:18.523Z,124224.00
2019-05-29T12:02:18.495Z,124480.00
2019-05-29T12:03:18.492Z,127168.00
2019-05-29T12:04:26.280Z,127648.00
2019-05-29T12:05:19.504Z,118752.00